createdAt,value
2019-03-11T00:03:49.044Z,2.1
2019-03-11T00:08:54.384Z,2.2
2019-03-11T00:14:00.045Z,2
2019-03-11T00:19:06.045Z,1.9
2019-03-11T00:24:12.011Z,2
2019-03-11T00:29:17.750Z,2.1
2019-03-11T00:34:23.328Z,2.1
2019-03-11T00:39:28.702Z,2.1
2019-03-11T00:44:34.447Z,2
2019-03-11T00:49:39.612Z,2
2019-03-11T00:54:45.391Z,1.9
2019-03-11T00:59:51.181Z,1.9
2019-03-11T01:04:56.280Z,1.7
2019-03-11T01:10:01.770Z,1.7
2019-03-11T01:15:07.928Z,2
2019-03-11T01:20:14.437Z,1.8
2019-03-11T01:25:20.278Z,1.8
2019-03-11T01:30:25.412Z,1.8
2019-03-11T01:35:31.071Z,1.9
2019-03-11T01:40:34.933Z,2.1
2019-03-11T01:45:40.253Z,1.8
2019-03-11T01:50:45.763Z,1.7
2019-03-11T01:55:50.974Z,1.8
2019-03-11T02:00:56.623Z,1.9
2019-03-11T02:06:02.226Z,1.8
2019-03-11T02:11:07.808Z,1.8
2019-03-11T02:16:13.630Z,1.8
2019-03-11T02:21:19.589Z,1.7
2019-03-11T02:26:24.957Z,1.5
2019-03-11T02:31:30.782Z,1.6
2019-03-11T02:36:36.089Z,1.7
2019-03-11T02:41:41.977Z,1.4
2019-03-11T02:46:47.656Z,1.6
2019-03-11T02:51:53.404Z,1.7
2019-03-11T02:56:58.513Z,1.7
2019-03-11T03:02:04.186Z,1.6
2019-03-11T03:07:10.021Z,1.7
2019-03-11T03:12:16.065Z,1.7
2019-03-11T03:17:21.193Z,1.7
2019-03-11T03:22:27.273Z,1.4
2019-03-11T03:27:32.936Z,1.3
2019-03-11T03:32:39.069Z,1.4
2019-03-11T03:37:45.101Z,1.3
2019-03-11T03:42:50.922Z,1.6
2019-03-11T03:47:57.755Z,1.4
2019-03-11T03:53:03.659Z,1.4
2019-03-11T03:58:09.474Z,1.4
2019-03-11T04:03:15.249Z,1.2
2019-03-11T04:08:20.338Z,1.5
2019-03-11T04:13:25.505Z,1.3
2019-03-11T04:18:31.689Z,1.5
2019-03-11T04:23:37.737Z,1.3
2019-03-11T04:28:43.445Z,1.4
2019-03-11T04:33:49.291Z,1.4
2019-03-11T04:38:54.772Z,1.4
2019-03-11T04:44:00.609Z,1.4
2019-03-11T04:49:06.165Z,1.3
2019-03-11T04:54:10.615Z,1.3
2019-03-11T04:59:16.263Z,1.3
2019-03-11T05:04:21.435Z,1.4
2019-03-11T05:09:27.306Z,1
2019-03-11T05:14:32.955Z,1.2
2019-03-11T05:19:38.796Z,1.3
2019-03-11T05:24:44.553Z,1.1
2019-03-11T05:29:50.303Z,1.4
2019-03-11T05:34:56.351Z,1.2
2019-03-11T05:40:02.052Z,1.2
2019-03-11T05:45:07.355Z,1.1
2019-03-11T05:50:12.579Z,1.3
2019-03-11T05:55:17.664Z,1.6
2019-03-11T06:00:22.913Z,1.6
2019-03-11T06:05:28.232Z,1.1
2019-03-11T06:10:34.088Z,1.4
2019-03-11T06:15:40.199Z,1.2
2019-03-11T06:20:45.287Z,1.4
2019-03-11T06:25:51.104Z,1.7
2019-03-11T06:30:56.708Z,1.6
2019-03-11T06:36:02.134Z,1.8
2019-03-11T06:41:07.560Z,1.7
2019-03-11T06:46:13.503Z,1.8
2019-03-11T06:51:18.655Z,1.5
2019-03-11T06:56:23.696Z,1.5
2019-03-11T07:01:28.656Z,1.3
2019-03-11T07:06:33.075Z,1.4
2019-03-11T07:11:39.168Z,1.5
2019-03-11T07:16:44.388Z,1.4
2019-03-11T07:21:50.276Z,1.2
2019-03-11T07:26:55.780Z,1.5
2019-03-11T07:32:00.846Z,1.4
2019-03-11T07:37:06.057Z,1.4
2019-03-11T07:42:11.170Z,1.3
2019-03-11T07:47:16.594Z,1.4
2019-03-11T07:52:22.704Z,1.1
2019-03-11T07:57:27.829Z,1.2
2019-03-11T08:02:32.817Z,1.2
2019-03-11T08:07:36.955Z,1.2
2019-03-11T08:12:40.428Z,1.2
2019-03-11T08:17:45.833Z,1.2
2019-03-11T08:22:51.053Z,1.1
2019-03-11T08:27:57.368Z,1.3
2019-03-11T08:33:02.697Z,1.2
2019-03-11T08:38:08.161Z,1.1
2019-03-11T08:43:12.112Z,1.1
2019-03-11T08:48:17.318Z,1.1
2019-03-11T08:53:22.490Z,1.1
2019-03-11T08:58:27.704Z,1.2
2019-03-11T09:03:32.791Z,1.2
2019-03-11T09:08:38.660Z,1.3
2019-03-11T09:13:43.647Z,1.1
2019-03-11T09:18:48.661Z,1
2019-03-11T09:23:53.697Z,1.2
2019-03-11T09:28:59.147Z,1.1
2019-03-11T09:34:04.595Z,1.1
2019-03-11T09:39:08.862Z,1.2
2019-03-11T09:44:14.110Z,1
2019-03-11T09:49:19.316Z,1.1
2019-03-11T09:54:23.345Z,1.2
2019-03-11T09:59:28.636Z,1.3
2019-03-11T10:04:34.253Z,1.3
2019-03-11T10:09:39.357Z,1.3
2019-03-11T10:14:45.317Z,1.3
2019-03-11T10:19:50.457Z,1.2
2019-03-11T10:24:55.742Z,1.3
2019-03-11T10:30:01.146Z,1.1
2019-03-11T10:35:06.560Z,3.2
2019-03-11T10:40:16.437Z,1.4
2019-03-11T10:45:32.270Z,1.3
2019-03-11T10:50:27.827Z,1.4
2019-03-11T10:55:33.153Z,1.4
2019-03-11T11:00:37.045Z,1.5
2019-03-11T11:05:42.309Z,1.4
2019-03-11T11:10:47.905Z,1.4
2019-03-11T11:15:55.641Z,1.5
2019-03-11T11:21:01.454Z,1.5
2019-03-11T11:26:06.479Z,1.2
2019-03-11T11:31:11.705Z,1.2
2019-03-11T11:36:16.940Z,1.4
2019-03-11T11:41:21.683Z,1.1
2019-03-11T11:46:27.700Z,1.3
2019-03-11T11:51:33.960Z,1.1
2019-03-11T11:56:39.698Z,0.9
2019-03-11T12:01:45.714Z,1.1
2019-03-11T12:06:50.992Z,1.1
2019-03-11T12:11:56.647Z,0.8
2019-03-11T12:17:02.297Z,0.9
2019-03-11T12:22:08.273Z,0.9
2019-03-11T12:27:13.897Z,0.9
2019-03-11T12:32:19.709Z,0.9
2019-03-11T12:37:25.728Z,0.8
2019-03-11T12:42:31.185Z,0.7
2019-03-11T12:47:37.168Z,0.7
2019-03-11T12:52:43.518Z,0.5
2019-03-11T12:57:48.908Z,0.5
2019-03-11T13:02:54.553Z,0.6
2019-03-11T13:07:59.300Z,0.6
2019-03-11T13:13:07.267Z,0.7
2019-03-11T13:18:12.468Z,0.7
2019-03-11T13:23:18.447Z,0.8
2019-03-11T13:28:24.229Z,0.9
2019-03-11T13:33:29.483Z,1.1
2019-03-11T13:38:35.452Z,0.8
2019-03-11T13:43:40.964Z,1
2019-03-11T13:48:46.335Z,0.7
2019-03-11T13:53:52.777Z,0.9
2019-03-11T13:58:58.444Z,0.7
2019-03-11T14:04:06.032Z,0.8
2019-03-11T14:09:12.251Z,4.9
2019-03-11T14:14:18.091Z,4.2
2019-03-11T14:19:23.967Z,3.4
2019-03-11T14:24:29.851Z,3.2
2019-03-11T14:29:35.533Z,2.7
2019-03-11T14:34:39.739Z,2.7
2019-03-11T14:39:48.914Z,2.5
2019-03-11T14:44:54.688Z,2.2
2019-03-11T14:50:00.976Z,2
2019-03-11T14:55:05.830Z,2
2019-03-11T15:00:11.190Z,2
2019-03-11T15:05:16.552Z,2.1
2019-03-11T15:10:22.598Z,1.8
2019-03-11T15:15:28.387Z,2.2
2019-03-11T15:20:33.776Z,1.7
2019-03-11T15:25:39.732Z,1.7
2019-03-11T15:30:45.740Z,1.8
2019-03-11T15:35:49.591Z,1.7
2019-03-11T15:40:54.742Z,1.8
2019-03-11T15:45:54.996Z,1.6
2019-03-11T15:51:00.225Z,1.7
2019-03-11T15:56:05.148Z,1.6
2019-03-11T16:01:10.124Z,1.4
2019-03-11T16:06:16.475Z,1.4
2019-03-11T16:11:22.472Z,1.3
2019-03-11T16:16:28.128Z,1.3
2019-03-11T16:21:35.857Z,1.5
2019-03-11T16:26:41.981Z,1.6
2019-03-11T16:31:47.964Z,1.4
2019-03-11T16:36:53.953Z,1.8
2019-03-11T16:41:59.823Z,1.7
2019-03-11T16:47:05.407Z,1.5
2019-03-11T16:52:10.580Z,1.9
2019-03-11T16:57:15.602Z,1.3
2019-03-11T17:02:20.660Z,2.9
2019-03-11T17:07:26.219Z,2.1
2019-03-11T17:12:31.230Z,1.9
2019-03-11T17:17:36.700Z,1.7
2019-03-11T17:22:41.871Z,1.8
2019-03-11T17:27:46.938Z,1.7
2019-03-11T17:32:50.837Z,1.8
2019-03-11T17:37:56.791Z,1.8
2019-03-11T17:43:06.019Z,1.8
2019-03-11T17:48:12.369Z,1.7
2019-03-11T17:53:20.967Z,1.7
2019-03-11T17:58:26.879Z,1.9
2019-03-11T18:03:32.633Z,1.7
2019-03-11T18:08:38.322Z,2.2
2019-03-11T18:13:43.421Z,2.3
2019-03-11T18:18:49.129Z,2.6
2019-03-11T18:23:54.573Z,2
2019-03-11T18:28:59.788Z,1.9
2019-03-11T18:34:04.811Z,2.1
2019-03-11T18:39:10.723Z,2.1
2019-03-11T18:44:15.754Z,1.7
2019-03-11T18:49:21.004Z,2
2019-03-11T18:54:26.339Z,1.9
2019-03-11T18:59:32.626Z,1.9
2019-03-11T19:04:37.969Z,1.8
2019-03-11T19:09:45.029Z,3.6
2019-03-11T19:14:48.893Z,3.2
2019-03-11T19:19:53.987Z,2.9
2019-03-11T19:24:59.115Z,2.5
2019-03-11T19:30:04.746Z,2.5
2019-03-11T19:35:09.366Z,2.6
2019-03-11T19:40:14.553Z,2.8
2019-03-11T19:45:18.736Z,2.8
2019-03-11T19:50:20.147Z,2.4
2019-03-11T19:55:26.105Z,2.5
2019-03-11T20:00:31.584Z,2.3
2019-03-11T20:05:37.283Z,2.9
2019-03-11T20:10:41.358Z,2.8
2019-03-11T20:15:46.693Z,3.1
2019-03-11T20:20:52.414Z,3
2019-03-11T20:25:58.591Z,2.7
2019-03-11T20:31:04.958Z,2.1
2019-03-11T20:36:21.618Z,1.9
2019-03-11T20:41:20.339Z,1.9
2019-03-11T20:46:26.026Z,1.7
2019-03-11T20:52:43.713Z,1.8
2019-03-11T20:57:49.224Z,1.5
2019-03-11T21:02:55.637Z,1.6
2019-03-11T21:07:59.414Z,1.3
2019-03-11T21:13:04.596Z,1.3
2019-03-11T21:18:09.816Z,1.6
2019-03-11T21:23:15.272Z,1.5
2019-03-11T21:28:20.746Z,1.7
2019-03-11T21:33:26.456Z,1.5
2019-03-11T21:38:32.289Z,1.9
2019-03-11T21:43:37.955Z,1.9
2019-03-11T21:48:43.206Z,1.7
2019-03-11T21:53:48.585Z,1.8
2019-03-11T21:58:54.145Z,1.7
2019-03-11T22:03:59.913Z,1.8
2019-03-11T22:09:05.952Z,1.7
2019-03-11T22:14:11.657Z,1.5
2019-03-11T22:19:16.643Z,1.7
2019-03-11T22:24:22.177Z,1.7
2019-03-11T22:29:28.150Z,1.7
2019-03-11T22:34:34.174Z,1.5
2019-03-11T22:39:39.147Z,1.5
2019-03-11T22:44:44.331Z,1.6
2019-03-11T22:49:49.999Z,1.5
2019-03-11T22:54:53.603Z,1.4
2019-03-11T22:59:59.612Z,1.5
2019-03-11T23:05:05.070Z,1.4
2019-03-11T23:10:10.914Z,1.5
2019-03-11T23:15:16.438Z,1.4
2019-03-11T23:20:22.285Z,1.5
2019-03-11T23:25:28.115Z,1.2
2019-03-11T23:30:33.896Z,1.3
2019-03-11T23:35:39.174Z,1.2
2019-03-11T23:40:44.903Z,1.1
2019-03-11T23:45:50.028Z,1.1
2019-03-11T23:50:55.776Z,1.2
2019-03-11T23:56:01.309Z,1.2
